Time;durP1;ratioP1;P1;durP2;ratioP2;P2;SDS_P1;SDS_P2;PMS_P1;PMS_P2;Temp;Humidity;BMP_temperature;BMP_pressure;BME280_temperature;BME280_humidity;BME280_pressure;Samples;Min_cycle;Max_cycle;Signal;HPM_P1;HPM_P2
2021/05/30 00:00:17;;;;;;;2.38;1.20;;;23.10;42.00;;;;;;5032302;28;20203;-60
2021/05/30 00:02:43;;;;;;;2.15;1.20;;;23.10;42.00;;;;;;5032674;28;20120;-60
2021/05/30 00:05:10;;;;;;;1.33;1.00;;;23.10;42.60;;;;;;5038875;28;20411;-60
2021/05/30 00:07:36;;;;;;;2.20;1.25;;;23.10;42.60;;;;;;5035470;28;20041;-60
2021/05/30 00:10:03;;;;;;;1.42;1.08;;;23.10;41.90;;;;;;5030361;28;20032;-61
2021/05/30 00:12:29;;;;;;;2.97;1.50;;;23.10;42.00;;;;;;5031311;28;20033;-61
2021/05/30 00:14:55;;;;;;;1.85;1.20;;;23.10;41.70;;;;;;5031108;28;20493;-60
2021/05/30 00:17:20;;;;;;;2.28;1.25;;;23.10;41.70;;;;;;5032324;28;20029;-60
2021/05/30 00:19:46;;;;;;;2.63;1.23;;;23.10;41.70;;;;;;5033391;28;20069;-60
2021/05/30 00:22:12;;;;;;;2.00;1.40;;;23.10;41.60;;;;;;5030796;28;20037;-61
2021/05/30 00:24:38;;;;;;;3.08;1.20;;;23.10;41.60;;;;;;5033417;28;20037;-61
2021/05/30 00:27:05;;;;;;;2.42;1.25;;;23.10;41.60;;;;;;5031520;28;20043;-61
2021/05/30 00:29:31;;;;;;;1.73;1.25;;;23.10;41.50;;;;;;5032355;28;20032;-61
2021/05/30 00:31:57;;;;;;;1.40;1.17;;;23.10;41.70;;;;;;5031545;28;20398;-61
2021/05/30 00:34:22;;;;;;;2.38;1.65;;;23.10;41.60;;;;;;5033452;28;20021;-61
2021/05/30 00:36:48;;;;;;;2.25;1.27;;;23.10;41.50;;;;;;5035795;28;20076;-61
2021/05/30 00:39:15;;;;;;;1.85;1.00;;;23.10;41.50;;;;;;5035349;28;20052;-61
2021/05/30 00:41:40;;;;;;;1.27;1.02;;;23.10;41.50;;;;;;5032382;28;20452;-61
2021/05/30 00:44:25;;;;;;;2.13;1.02;;;23.10;41.50;;;;;;5033279;28;20040;-61
2021/05/30 00:46:55;;;;;;;3.40;1.23;;;23.00;41.30;;;;;;5030993;28;20045;-61
2021/05/30 00:49:21;;;;;;;1.48;0.90;;;23.00;41.30;;;;;;5031184;28;20033;-61
2021/05/30 00:51:48;;;;;;;2.00;1.20;;;23.00;41.30;;;;;;5031663;28;20086;-61
2021/05/30 00:54:14;;;;;;;4.15;1.38;;;23.00;41.30;;;;;;5030056;28;20122;-61
2021/05/30 00:56:40;;;;;;;2.10;0.95;;;23.00;41.30;;;;;;5031588;28;20037;-61
2021/05/30 00:59:07;;;;;;;1.42;1.25;;;23.00;41.30;;;;;;5034226;28;20025;-60
2021/05/30 01:01:34;;;;;;;1.77;1.10;;;23.00;41.20;;;;;;5029202;28;20026;-60
2021/05/30 01:04:00;;;;;;;2.65;1.20;;;23.00;41.20;;;;;;5031887;28;20419;-60
2021/05/30 01:06:27;;;;;;;1.95;1.75;;;23.00;41.20;;;;;;5034771;28;20041;-60
2021/05/30 01:08:52;;;;;;;2.15;1.17;;;23.00;41.10;;;;;;5037891;28;20029;-60
2021/05/30 01:11:22;;;;;;;3.40;1.40;;;23.00;41.00;;;;;;5027564;28;20021;-60
2021/05/30 01:13:55;;;;;;;5.82;1.38;;;23.00;41.00;;;;;;5028507;28;20411;-60
2021/05/30 01:16:22;;;;;;;2.38;1.17;;;23.00;41.00;;;;;;5032440;28;20037;-60
2021/05/30 01:18:50;;;;;;;3.88;1.20;;;23.00;40.90;;;;;;5032409;28;20061;-60
2021/05/30 01:21:16;;;;;;;2.47;1.20;;;23.00;41.00;;;;;;5029640;28;20025;-60
2021/05/30 01:23:42;;;;;;;2.63;1.40;;;23.00;40.90;;;;;;5028565;28;20036;-60
2021/05/30 01:26:08;;;;;;;2.05;1.20;;;23.00;40.80;;;;;;5028818;28;20038;-60
2021/05/30 01:28:34;;;;;;;2.50;1.25;;;23.00;40.80;;;;;;5029661;28;20041;-60
2021/05/30 01:31:00;;;;;;;1.77;1.10;;;23.00;40.80;;;;;;5029563;28;20511;-61
2021/05/30 01:33:26;;;;;;;3.90;1.55;;;23.00;40.70;;;;;;5027395;28;20357;-61
2021/05/30 01:35:51;;;;;;;1.15;0.80;;;23.00;40.70;;;;;;5026841;28;20021;-61
2021/05/30 01:38:17;;;;;;;2.70;1.30;;;23.00;40.80;;;;;;5024993;28;20871;-61
2021/05/30 01:40:43;;;;;;;1.85;1.00;;;23.00;40.60;;;;;;5034743;28;20590;-61
2021/05/30 01:43:09;;;;;;;1.13;0.82;;;22.90;40.50;;;;;;5025361;28;20037;-60
2021/05/30 01:45:35;;;;;;;1.92;1.17;;;23.00;40.60;;;;;;5027078;28;20083;-61
2021/05/30 01:48:04;;;;;;;1.60;1.38;;;23.00;40.50;;;;;;5030236;28;20036;-61
2021/05/30 01:50:32;;;;;;;1.88;1.05;;;23.00;40.60;;;;;;5031109;28;20028;-61
2021/05/30 01:53:04;;;;;;;1.70;1.02;;;22.90;40.40;;;;;;5031433;28;20051;-61
2021/05/30 01:55:47;;;;;;;1.35;1.02;;;23.00;40.60;;;;;;5028898;28;20601;-61
2021/05/30 01:58:13;;;;;;;1.90;0.98;;;23.00;40.60;;;;;;5026006;28;20042;-61
2021/05/30 02:00:39;;;;;;;1.90;0.80;;;23.00;40.50;;;;;;5027692;28;20029;-61
2021/05/30 02:03:06;;;;;;;2.35;0.98;;;23.00;40.50;;;;;;5030372;28;20034;-61
2021/05/30 02:05:33;;;;;;;1.08;0.77;;;23.00;40.40;;;;;;5026965;28;20132;-61
2021/05/30 02:08:00;;;;;;;0.70;0.70;;;23.00;40.50;;;;;;5024872;28;20037;-61
2021/05/30 02:10:26;;;;;;;1.55;1.17;;;23.00;40.50;;;;;;5025933;28;20025;-61
2021/05/30 02:12:54;;;;;;;1.42;0.88;;;23.00;40.30;;;;;;5026407;28;20087;-61
2021/05/30 02:15:22;;;;;;;2.45;1.10;;;22.90;40.40;;;;;;5027175;28;20033;-61
2021/05/30 02:17:48;;;;;;;2.15;0.80;;;22.90;40.30;;;;;;5027016;28;20024;-61
2021/05/30 02:20:16;;;;;;;1.00;0.85;;;22.90;40.40;;;;;;5028366;28;20034;-61
2021/05/30 02:22:41;;;;;;;3.13;0.80;;;22.90;40.40;;;;;;5025482;28;20029;-61
2021/05/30 02:25:11;;;;;;;1.60;0.80;;;23.00;40.30;;;;;;5026436;28;20373;-61
2021/05/30 02:27:38;;;;;;;1.27;0.77;;;23.00;40.30;;;;;;5025668;28;20037;-61
2021/05/30 02:30:06;;;;;;;0.82;0.80;;;23.00;40.30;;;;;;5029882;28;20104;-60
2021/05/30 02:32:31;;;;;;;0.85;0.80;;;22.90;40.30;;;;;;5027811;28;20454;-60
2021/05/30 02:34:57;;;;;;;1.50;1.00;;;23.00;40.30;;;;;;5025760;28;20482;-60
2021/05/30 02:37:23;;;;;;;1.40;0.80;;;23.00;40.20;;;;;;5025587;28;20353;-60
2021/05/30 02:39:49;;;;;;;1.15;0.88;;;22.90;40.30;;;;;;5025723;28;20102;-61
2021/05/30 02:42:15;;;;;;;1.13;0.80;;;23.00;40.20;;;;;;5027349;28;20048;-60
2021/05/30 02:44:41;;;;;;;2.55;0.82;;;22.90;40.30;;;;;;5026460;28;20049;-60
2021/05/30 02:47:07;;;;;;;1.60;0.73;;;22.90;40.30;;;;;;5025260;28;20044;-60
2021/05/30 02:49:33;;;;;;;1.33;0.82;;;22.90;40.10;;;;;;5029057;28;20056;-60
2021/05/30 02:52:02;;;;;;;1.13;0.80;;;22.90;40.20;;;;;;5026132;28;20033;-60
2021/05/30 02:54:28;;;;;;;0.88;0.80;;;22.90;40.20;;;;;;5027809;28;20095;-61
2021/05/30 02:56:54;;;;;;;1.02;0.82;;;22.90;40.10;;;;;;5026868;28;20033;-60
2021/05/30 02:59:20;;;;;;;0.80;0.80;;;22.90;40.00;;;;;;5029661;28;20487;-60
2021/05/30 03:01:45;;;;;;;4.28;0.93;;;22.90;40.20;;;;;;5028548;28;20108;-60
2021/05/30 03:04:11;;;;;;;1.67;1.35;;;22.90;40.00;;;;;;5030046;28;20057;-61
2021/05/30 03:06:37;;;;;;;2.47;0.80;;;22.90;40.30;;;;;;5026432;28;20114;-61
2021/05/30 03:09:03;;;;;;;0.77;0.77;;;22.90;40.00;;;;;;5027098;28;20443;-61
2021/05/30 03:11:29;;;;;;;1.00;0.90;;;22.90;40.10;;;;;;5027452;28;20037;-60
2021/05/30 03:13:55;;;;;;;3.03;1.08;;;22.90;40.00;;;;;;5027019;28;20441;-60
2021/05/30 03:16:22;;;;;;;1.15;0.90;;;22.90;40.10;;;;;;5026811;28;20069;-61
2021/05/30 03:18:48;;;;;;;1.55;1.27;;;22.90;40.00;;;;;;5024958;28;20029;-60
2021/05/30 03:21:15;;;;;;;1.48;0.90;;;22.90;40.00;;;;;;5031362;28;20025;-61
2021/05/30 03:23:41;;;;;;;1.30;0.77;;;22.90;40.10;;;;;;5026555;28;20025;-60
2021/05/30 03:26:06;;;;;;;0.85;0.85;;;22.90;40.10;;;;;;5025753;28;20056;-60
2021/05/30 03:28:32;;;;;;;1.25;1.02;;;22.90;40.10;;;;;;5025328;28;20025;-60
2021/05/30 03:30:58;;;;;;;1.50;0.90;;;22.90;39.90;;;;;;5028770;28;20568;-61
2021/05/30 03:33:24;;;;;;;1.23;0.80;;;22.90;40.00;;;;;;5028886;28;20116;-61
2021/05/30 03:35:50;;;;;;;0.60;0.60;;;22.90;40.00;;;;;;5030602;28;20091;-61
2021/05/30 03:38:18;;;;;;;1.55;0.88;;;22.90;40.10;;;;;;5026279;28;20067;-61
2021/05/30 03:40:49;;;;;;;0.70;0.70;;;22.90;40.10;;;;;;5026285;28;20024;-61
2021/05/30 03:43:15;;;;;;;1.95;0.90;;;22.90;40.30;;;;;;5025422;28;20259;-61
2021/05/30 03:45:41;;;;;;;0.80;0.70;;;22.90;39.90;;;;;;5024583;28;20029;-61
2021/05/30 03:48:07;;;;;;;0.80;0.57;;;22.90;40.10;;;;;;5026542;28;20060;-61
2021/05/30 03:50:34;;;;;;;2.63;1.13;;;22.90;40.10;;;;;;5027012;28;20060;-60
2021/05/30 03:53:01;;;;;;;2.35;1.00;;;22.90;40.00;;;;;;5027013;28;20037;-60
2021/05/30 03:55:27;;;;;;;0.73;0.70;;;22.90;40.00;;;;;;5025452;28;20069;-60
2021/05/30 03:57:53;;;;;;;1.08;0.85;;;22.90;40.60;;;;;;5026266;28;20120;-60
2021/05/30 04:00:19;;;;;;;1.20;0.90;;;22.90;40.00;;;;;;5025763;28;20031;-60
2021/05/30 04:02:46;;;;;;;1.67;0.80;;;22.90;40.00;;;;;;5025444;28;20973;-60
2021/05/30 04:05:14;;;;;;;1.35;0.90;;;22.90;40.10;;;;;;5025749;28;20040;-60
2021/05/30 04:07:40;;;;;;;0.90;0.90;;;22.90;40.10;;;;;;5025914;28;20118;-60
2021/05/30 04:10:10;;;;;;;1.02;0.98;;;22.90;40.10;;;;;;5028094;28;20391;-60
2021/05/30 04:12:40;;;;;;;1.42;0.75;;;22.90;40.10;;;;;;5027134;28;20034;-61
2021/05/30 04:15:11;;;;;;;1.35;1.05;;;22.90;40.20;;;;;;5029067;28;20052;-60
2021/05/30 04:17:37;;;;;;;0.90;0.65;;;22.90;40.20;;;;;;5026474;28;20032;-60
2021/05/30 04:20:04;;;;;;;0.60;0.60;;;22.90;40.20;;;;;;5026101;28;20025;-60
2021/05/30 04:22:30;;;;;;;0.93;0.77;;;22.90;40.10;;;;;;5026587;28;20017;-61
2021/05/30 04:24:56;;;;;;;1.00;0.70;;;22.90;40.20;;;;;;5026715;28;20143;-62
2021/05/30 04:27:22;;;;;;;0.80;0.80;;;22.90;40.20;;;;;;5028412;28;20530;-60
2021/05/30 04:29:47;;;;;;;1.40;0.60;;;22.90;40.20;;;;;;5031039;28;20444;-62
2021/05/30 04:32:13;;;;;;;2.15;0.70;;;22.90;40.90;;;;;;5031905;28;20033;-61
2021/05/30 04:34:39;;;;;;;3.17;1.20;;;22.90;40.20;;;;;;5026566;28;20025;-62
2021/05/30 04:37:04;;;;;;;6.75;0.80;;;22.90;40.20;;;;;;5029020;28;20968;-61
2021/05/30 04:39:33;;;;;;;2.38;0.98;;;22.90;40.20;;;;;;5026867;28;20388;-61
2021/05/30 04:41:59;;;;;;;2.15;0.80;;;22.90;40.30;;;;;;5032290;28;20051;-61
2021/05/30 04:44:26;;;;;;;3.72;1.20;;;22.90;40.30;;;;;;5033985;28;20037;-61
2021/05/30 04:46:52;;;;;;;0.93;0.70;;;22.90;40.40;;;;;;5028218;28;20143;-61
2021/05/30 04:49:17;;;;;;;0.57;0.55;;;22.90;40.40;;;;;;5028227;28;20029;-61
2021/05/30 04:51:43;;;;;;;1.10;0.80;;;22.90;40.40;;;;;;5025009;28;20549;-62
2021/05/30 04:54:09;;;;;;;1.08;0.85;;;22.90;40.30;;;;;;5027551;28;20107;-61
2021/05/30 04:56:35;;;;;;;0.77;0.77;;;22.90;40.30;;;;;;5028736;28;20029;-62
2021/05/30 04:59:00;;;;;;;1.27;0.75;;;22.90;40.20;;;;;;5022513;28;20491;-61
2021/05/30 05:01:26;;;;;;;1.42;0.85;;;22.90;40.30;;;;;;5025443;28;20099;-62
2021/05/30 05:03:52;;;;;;;1.10;0.68;;;22.90;40.30;;;;;;5027422;28;20029;-61
2021/05/30 05:06:17;;;;;;;1.77;1.15;;;22.90;40.20;;;;;;5030143;28;20169;-62
2021/05/30 05:08:43;;;;;;;1.58;1.10;;;22.90;40.20;;;;;;5027045;28;20591;-62
2021/05/30 05:11:09;;;;;;;1.13;0.88;;;23.00;40.30;;;;;;5026078;28;20375;-61
2021/05/30 05:13:36;;;;;;;5.15;0.80;;;23.00;40.20;;;;;;5026500;28;20396;-60
2021/05/30 05:16:02;;;;;;;3.80;0.82;;;23.00;40.20;;;;;;5032076;28;22355;-58
2021/05/30 05:18:30;;;;;;;1.33;0.73;;;23.00;40.00;;;;;;5026988;28;20451;-61
2021/05/30 05:20:56;;;;;;;2.78;0.80;;;23.00;40.10;;;;;;5026257;28;21844;-60
2021/05/30 05:23:24;;;;;;;1.25;0.73;;;23.00;40.00;;;;;;5024472;28;20100;-60
2021/05/30 05:25:54;;;;;;;4.50;1.05;;;23.00;40.00;;;;;;5027930;28;20026;-62
2021/05/30 05:28:21;;;;;;;2.40;1.15;;;23.00;40.00;;;;;;5027402;28;20483;-63
2021/05/30 05:30:48;;;;;;;4.20;1.05;;;23.00;40.00;;;;;;5029441;28;20569;-62
2021/05/30 05:33:14;;;;;;;10.65;1.10;;;23.00;39.90;;;;;;5028409;28;20136;-61
2021/05/30 05:35:39;;;;;;;4.60;0.82;;;23.10;40.00;;;;;;5028725;28;20029;-60
2021/05/30 05:38:05;;;;;;;5.72;1.02;;;23.20;39.20;;;;;;5023959;28;20051;-61
2021/05/30 05:40:31;;;;;;;3.40;1.27;;;23.20;38.60;;;;;;5026677;28;20108;-61
2021/05/30 05:42:57;;;;;;;6.00;1.00;;;23.30;38.50;;;;;;5026873;28;20041;-61
2021/05/30 05:45:24;;;;;;;4.97;1.00;;;23.30;38.30;;;;;;5028089;28;20581;-61
2021/05/30 05:47:51;;;;;;;9.30;1.00;;;23.30;38.00;;;;;;5023896;28;20048;-60
2021/05/30 05:50:19;;;;;;;1.27;0.70;;;23.30;37.90;;;;;;5024808;28;20091;-60
2021/05/30 05:52:45;;;;;;;1.88;0.75;;;23.30;37.80;;;;;;5024895;28;20505;-61
2021/05/30 05:55:12;;;;;;;2.63;0.77;;;23.30;37.80;;;;;;5032839;28;20473;-63
2021/05/30 05:57:39;;;;;;;1.88;0.70;;;23.30;38.00;;;;;;5031521;28;20479;-61
2021/05/30 06:00:07;;;;;;;1.33;0.80;;;23.40;37.70;;;;;;5031445;28;20135;-60
2021/05/30 06:02:33;;;;;;;10.18;1.42;;;23.40;37.50;;;;;;5029370;28;20091;-61
2021/05/30 06:04:58;;;;;;;5.05;1.20;;;23.40;36.80;;;;;;5025443;28;20037;-63
2021/05/30 06:07:24;;;;;;;4.80;1.55;;;23.40;37.60;;;;;;5024457;28;20036;-58
2021/05/30 06:09:51;;;;;;;1.23;0.93;;;23.40;37.30;;;;;;5024507;28;20021;-60
2021/05/30 06:12:18;;;;;;;5.28;0.90;;;23.40;37.10;;;;;;5024664;28;20033;-60
2021/05/30 06:14:45;;;;;;;2.65;0.80;;;23.40;37.30;;;;;;5026399;28;20697;-58
2021/05/30 06:17:11;;;;;;;3.47;0.73;;;23.50;37.70;;;;;;5022727;28;20033;-59
2021/05/30 06:19:37;;;;;;;14.00;1.40;;;23.50;37.60;;;;;;5025894;28;20025;-59
2021/05/30 06:22:05;;;;;;;1.73;0.70;;;23.40;37.70;;;;;;5027083;28;20457;-59
2021/05/30 06:24:31;;;;;;;5.95;0.85;;;23.40;37.40;;;;;;5024383;28;20060;-59
2021/05/30 06:26:58;;;;;;;2.63;1.27;;;23.50;37.00;;;;;;5027280;28;20048;-60
2021/05/30 06:29:24;;;;;;;2.97;0.70;;;23.50;37.30;;;;;;5029009;28;20021;-58
2021/05/30 06:31:50;;;;;;;3.47;0.70;;;23.50;37.00;;;;;;5028777;28;20013;-61
2021/05/30 06:34:16;;;;;;;4.03;1.58;;;23.50;37.40;;;;;;5023461;28;20135;-58
2021/05/30 06:36:43;;;;;;;5.50;0.93;;;23.50;37.60;;;;;;5023583;28;20033;-58
2021/05/30 06:39:09;;;;;;;9.63;0.90;;;23.50;37.30;;;;;;5024427;28;20034;-60
2021/05/30 06:41:36;;;;;;;2.22;0.80;;;23.50;37.40;;;;;;5024891;28;20048;-59
2021/05/30 06:44:03;;;;;;;6.22;0.93;;;23.40;36.90;;;;;;5026076;28;20033;-60
2021/05/30 06:46:28;;;;;;;7.82;0.93;;;23.40;37.30;;;;;;5025156;28;20037;-60
2021/05/30 06:48:54;;;;;;;2.20;1.27;;;23.30;37.60;;;;;;5025405;28;20475;-59
2021/05/30 06:51:22;;;;;;;2.10;0.70;;;23.30;37.60;;;;;;5026292;28;20029;-60
2021/05/30 06:53:50;;;;;;;3.00;0.88;;;23.40;37.60;;;;;;5030454;28;20152;-60
2021/05/30 06:56:17;;;;;;;15.27;1.20;;;23.50;38.00;;;;;;5030217;28;20034;-61
2021/05/30 06:58:43;;;;;;;6.80;0.80;;;23.60;38.10;;;;;;5029602;28;20185;-62
2021/05/30 07:01:11;;;;;;;2.55;0.77;;;23.60;37.30;;;;;;5027792;28;20040;-60
2021/05/30 07:03:37;;;;;;;4.55;1.17;;;23.50;38.00;;;;;;5029185;28;20205;-61
2021/05/30 07:06:04;;;;;;;8.52;1.52;;;23.50;37.60;;;;;;5030085;28;20053;-64
2021/05/30 07:08:31;;;;;;;3.42;1.17;;;23.50;38.10;;;;;;5027565;28;20072;-65
2021/05/30 07:10:56;;;;;;;10.13;1.00;;;23.60;37.80;;;;;;5030331;28;20385;-64
2021/05/30 07:13:22;;;;;;;6.97;0.82;;;23.60;37.90;;;;;;5034146;28;20079;-64
2021/05/30 07:15:54;;;;;;;7.30;1.25;;;23.50;38.00;;;;;;5031569;28;20021;-65
2021/05/30 07:18:20;;;;;;;4.80;0.60;;;23.50;38.20;;;;;;5030190;28;20047;-65
2021/05/30 07:20:51;;;;;;;3.05;0.80;;;23.50;38.10;;;;;;5030307;28;20025;-65
2021/05/30 07:23:17;;;;;;;3.80;0.70;;;23.40;37.40;;;;;;5027604;28;20033;-63
2021/05/30 07:25:43;;;;;;;5.50;1.08;;;23.40;37.80;;;;;;5030263;28;20565;-65
2021/05/30 07:28:09;;;;;;;3.92;1.00;;;23.40;37.50;;;;;;5024561;28;20720;-64
2021/05/30 07:30:35;;;;;;;3.85;0.70;;;23.30;37.60;;;;;;5026482;28;20034;-63
2021/05/30 07:33:02;;;;;;;2.97;1.23;;;23.30;38.10;;;;;;5025463;28;20029;-64
2021/05/30 07:35:29;;;;;;;1.00;0.70;;;23.30;37.90;;;;;;5026471;28;20068;-65
2021/05/30 07:37:55;;;;;;;1.48;0.63;;;23.30;38.30;;;;;;5026966;28;20068;-66
2021/05/30 07:40:22;;;;;;;4.45;1.27;;;23.30;38.30;;;;;;5027182;28;20494;-62
2021/05/30 07:42:48;;;;;;;10.93;1.60;;;23.40;38.90;;;;;;5028358;28;20036;-62
2021/05/30 07:45:16;;;;;;;2.85;1.00;;;23.40;38.60;;;;;;5031673;28;20415;-59
2021/05/30 07:47:42;;;;;;;1.88;1.10;;;23.60;38.20;;;;;;5028377;28;20122;-59
2021/05/30 07:50:08;;;;;;;8.02;1.70;;;23.60;37.70;;;;;;5028518;28;20021;-60
2021/05/30 07:52:35;;;;;;;7.82;1.10;;;23.60;37.70;;;;;;5024785;28;20068;-58
2021/05/30 07:55:01;;;;;;;5.25;1.02;;;23.60;37.80;;;;;;5029595;28;20115;-59
2021/05/30 07:57:26;;;;;;;7.38;1.30;;;23.60;37.40;;;;;;5027228;28;20036;-62
2021/05/30 07:59:52;;;;;;;2.83;1.20;;;23.50;37.10;;;;;;5029264;28;20063;-60
2021/05/30 08:02:18;;;;;;;8.27;2.30;;;23.40;36.80;;;;;;5029989;28;20194;-59
2021/05/30 08:04:44;;;;;;;3.13;1.00;;;23.40;37.00;;;;;;5030304;28;20051;-60
2021/05/30 08:07:10;;;;;;;6.10;1.13;;;23.30;36.90;;;;;;5032668;28;20097;-65
2021/05/30 08:09:36;;;;;;;19.70;1.40;;;23.40;37.30;;;;;;5026768;28;21247;-59
2021/05/30 08:12:02;;;;;;;2.65;1.45;;;23.40;36.40;;;;;;5026931;28;20083;-61
2021/05/30 08:14:29;;;;;;;8.60;1.13;;;23.40;36.30;;;;;;5025469;28;20074;-61
2021/05/30 08:16:55;;;;;;;6.28;0.90;;;23.40;36.60;;;;;;5028996;28;20095;-60
2021/05/30 08:19:20;;;;;;;4.32;1.10;;;23.40;36.70;;;;;;5027507;28;20017;-60
2021/05/30 08:21:46;;;;;;;4.88;1.77;;;23.40;36.50;;;;;;5027667;28;21195;-62
2021/05/30 08:24:13;;;;;;;3.92;1.75;;;22.60;31.30;;;;;;5026671;28;20018;-63
2021/05/30 08:26:40;;;;;;;4.50;2.22;;;20.80;34.10;;;;;;5036973;28;20566;-62
2021/05/30 08:29:06;;;;;;;3.80;1.83;;;19.50;35.70;;;;;;5036759;28;20029;-62
2021/05/30 08:31:32;;;;;;;2.38;1.65;;;19.00;36.30;;;;;;5031797;28;20581;-61
2021/05/30 08:33:57;;;;;;;3.08;1.20;;;18.70;36.00;;;;;;5033683;28;20201;-61
2021/05/30 08:36:23;;;;;;;3.45;1.77;;;18.70;35.70;;;;;;5033577;28;20038;-62
2021/05/30 08:38:49;;;;;;;2.65;1.45;;;18.60;36.70;;;;;;5031047;28;20139;-62
2021/05/30 08:41:20;;;;;;;3.10;2.00;;;18.70;37.10;;;;;;5031064;28;20032;-64
2021/05/30 08:43:46;;;;;;;6.32;1.70;;;18.70;36.20;;;;;;5031448;28;20064;-64
2021/05/30 08:46:12;;;;;;;1.73;1.30;;;18.60;36.40;;;;;;5032973;28;20862;-65
2021/05/30 08:48:37;;;;;;;3.63;1.45;;;18.60;35.80;;;;;;5031594;28;20060;-65
2021/05/30 08:51:04;;;;;;;4.55;1.88;;;18.60;36.90;;;;;;5031151;28;20051;-64
2021/05/30 08:53:39;;;;;;;2.78;1.40;;;18.50;37.40;;;;;;5031527;28;20025;-63
2021/05/30 08:56:07;;;;;;;3.28;1.70;;;18.70;36.40;;;;;;5033044;28;20776;-64
2021/05/30 08:58:37;;;;;;;4.95;1.63;;;18.50;36.60;;;;;;5033576;28;20460;-64
2021/05/30 09:01:08;;;;;;;2.47;1.10;;;18.40;37.30;;;;;;5027634;28;20032;-64
2021/05/30 09:04:06;;;;;;;5.70;1.50;;;18.60;37.40;;;;;;5034659;28;20033;-64
2021/05/30 09:06:33;;;;;;;7.22;1.60;;;18.80;36.90;;;;;;5031035;28;20052;-63
2021/05/30 09:09:00;;;;;;;2.58;1.70;;;18.70;36.70;;;;;;5029912;28;20115;-64
2021/05/30 09:11:47;;;;;;;2.83;1.42;;;18.80;36.30;;;;;;5029287;28;20021;-66
2021/05/30 09:14:28;;;;;;;2.65;1.50;;;18.60;36.20;;;;;;5033971;28;20132;-60
2021/05/30 09:16:57;;;;;;;3.45;1.40;;;18.50;37.10;;;;;;5025403;28;20376;-59
2021/05/30 09:19:32;;;;;;;3.85;1.35;;;18.20;37.80;;;;;;5027415;28;20033;-59
2021/05/30 09:22:16;;;;;;;4.13;1.67;;;19.20;36.90;;;;;;5028161;28;20454;-57
2021/05/30 09:24:47;;;;;;;8.02;2.60;;;19.40;36.20;;;;;;5023999;28;20491;-57
2021/05/30 09:27:13;;;;;;;4.40;1.50;;;19.30;36.90;;;;;;5028646;28;20160;-58
2021/05/30 09:29:39;;;;;;;5.50;1.60;;;19.40;36.00;;;;;;5032784;28;20554;-59
2021/05/30 09:32:05;;;;;;;5.20;1.60;;;19.80;36.30;;;;;;5034732;28;20021;-59
2021/05/30 09:34:36;;;;;;;1.35;1.05;;;20.10;35.80;;;;;;5034975;28;20021;-59
2021/05/30 09:37:03;;;;;;;4.97;1.58;;;20.00;34.70;;;;;;5032845;28;20029;-60
2021/05/30 09:39:40;;;;;;;5.43;1.52;;;19.50;35.40;;;;;;5033410;28;20040;-60
2021/05/30 09:42:25;;;;;;;4.32;1.52;;;19.40;36.10;;;;;;5034461;28;20120;-60
2021/05/30 09:45:02;;;;;;;3.25;1.50;;;19.20;36.20;;;;;;5031691;28;20061;-58
2021/05/30 09:47:34;;;;;;;3.40;1.20;;;19.80;36.20;;;;;;5033965;28;20049;-59
2021/05/30 09:50:01;;;;;;;4.45;0.90;;;20.50;36.30;;;;;;5034106;28;20108;-58
2021/05/30 09:52:37;;;;;;;4.30;1.20;;;21.00;35.80;;;;;;5033211;28;20406;-59
2021/05/30 09:55:26;;;;;;;2.28;1.50;;;21.30;35.50;;;;;;5033131;28;20025;-59
2021/05/30 09:58:14;;;;;;;3.30;0.70;;;21.60;35.60;;;;;;5034449;28;20099;-59
2021/05/30 10:00:55;;;;;;;4.25;0.82;;;21.80;35.60;;;;;;5033496;28;20040;-58
2021/05/30 10:03:22;;;;;;;3.25;1.60;;;21.90;35.60;;;;;;5033821;28;20025;-58
2021/05/30 10:05:48;;;;;;;4.25;0.75;;;22.00;35.50;;;;;;5032981;28;20463;-58
2021/05/30 10:08:19;;;;;;;3.03;1.10;;;22.00;35.50;;;;;;5031806;28;20049;-58
2021/05/30 10:10:45;;;;;;;4.07;1.02;;;22.10;35.60;;;;;;5034164;28;20292;-58
2021/05/30 10:13:12;;;;;;;1.55;0.90;;;22.10;35.60;;;;;;5033801;28;20032;-58
2021/05/30 10:15:39;;;;;;;0.80;0.60;;;22.20;35.60;;;;;;5035708;28;20025;-59
2021/05/30 10:18:33;;;;;;;1.48;0.77;;;22.20;35.60;;;;;;5033727;28;20549;-59
2021/05/30 10:20:59;;;;;;;0.70;0.70;;;22.30;36.30;;;;;;5032964;28;20569;-59
2021/05/30 10:23:27;;;;;;;1.58;0.85;;;22.30;35.60;;;;;;5031242;28;20029;-59
2021/05/30 10:26:11;;;;;;;1.92;0.90;;;22.30;35.50;;;;;;5033848;28;20021;-59
2021/05/30 10:28:51;;;;;;;2.00;0.90;;;22.30;35.50;;;;;;5034618;28;20511;-59
2021/05/30 10:31:26;;;;;;;1.48;0.90;;;22.40;35.50;;;;;;5032728;28;20317;-59
2021/05/30 10:34:10;;;;;;;1.42;0.63;;;22.40;35.50;;;;;;5034586;28;20112;-59
2021/05/30 10:36:42;;;;;;;2.13;0.88;;;22.40;35.50;;;;;;5031495;28;20053;-59
2021/05/30 10:39:26;;;;;;;3.70;1.60;;;;;;;;;;5035588;28;20033;-65
2021/05/30 10:42:11;;;;;;;8.23;1.70;;;;;;;;;;5039877;28;20502;-65
2021/05/30 10:44:53;;;;;;;8.50;2.13;;;;;;;;;;5029086;28;20263;-67
2021/05/30 10:47:19;;;;;;;5.97;2.05;;;;;;;;;;5026598;28;20499;-66
2021/05/30 10:50:03;;;;;;;5.32;1.90;;;;;;;;;;5025840;28;21374;-67
2021/05/30 10:52:33;;;;;;;3.58;1.95;;;;;;;;;;5028334;28;20060;-65
2021/05/30 10:55:10;;;;;;;6.22;2.20;;;;;;;;;;5027267;28;20488;-65
2021/05/30 10:57:37;;;;;;;2.40;1.50;;;;;;;;;;5027369;28;20029;-64
2021/05/30 11:00:23;;;;;;;2.72;1.52;;;;;;;;;;5032969;28;20154;-64
2021/05/30 11:03:07;;;;;;;1.77;1.35;;;;;;;;;;5035576;28;20139;-64
2021/05/30 11:05:46;;;;;;;6.25;2.17;;;;;;;;;;5033218;28;20098;-63
2021/05/30 11:08:34;;;;;;;2.80;1.50;;;;;;;;;;5033167;28;20404;-64
2021/05/30 11:11:12;;;;;;;2.72;1.58;;;;;;;;;;5034602;28;20029;-64
2021/05/30 11:13:51;;;;;;;3.88;1.75;;;;;;;;;;5033829;28;20477;-63
2021/05/30 11:16:19;;;;;;;2.03;1.52;;;;;;;;;;5032616;28;20656;-70
2021/05/30 11:18:45;;;;;;;4.03;1.67;;;;;;;;;;5031114;28;20127;-71
2021/05/30 11:21:13;;;;;;;2.30;1.75;;;;;;;;;;5032037;28;20110;-71
2021/05/30 11:23:40;;;;;;;6.90;1.90;;;;;;;;;;5029902;28;21017;-71
2021/05/30 11:26:10;;;;;;;4.30;1.67;;;;;;;;;;5027573;28;20546;-71
2021/05/30 11:28:36;;;;;;;11.90;5.13;;;;;;;;;;5035872;28;20509;-72
2021/05/30 11:31:06;;;;;;;9.18;5.55;;;;;;;;;;5035650;28;20463;-71
2021/05/30 11:33:39;;;;;;;70.43;32.67;;;;;;;;;;5032108;28;20049;-70
2021/05/30 11:36:06;;;;;;;32.97;14.65;;;;;;;;;;5037296;28;20112;-71
2021/05/30 11:38:33;;;;;;;24.33;11.68;;;;;;;;;;5031077;28;20040;-71
2021/05/30 11:41:18;;;;;;;9.15;4.95;;;;;;;;;;5033821;28;20403;-70
2021/05/30 11:43:58;;;;;;;6.40;3.63;;;;;;;;;;5034831;28;20109;-71
2021/05/30 11:46:25;;;;;;;5.60;3.10;;;;;;;;;;5034145;28;20053;-71
2021/05/30 11:49:00;;;;;;;6.05;3.40;;;;;;;;;;5036659;28;22289;-72
2021/05/30 11:51:41;;;;;;;13.63;12.60;;;;;;;;;;5035852;28;20064;-66
2021/05/30 11:54:07;;;;;;;5.93;5.03;;;;;;;;;;5032113;28;20491;-67
2021/05/30 11:56:41;;;;;;;4.63;2.58;;;;;;;;;;5032491;28;20090;-70
2021/05/30 11:59:07;;;;;;;6.00;2.08;;;;;;;;;;5032716;28;20044;-69
2021/05/30 12:01:44;;;;;;;3.25;2.10;;;;;;;;;;5031043;28;20091;-71
2021/05/30 12:04:19;;;;;;;5.25;2.05;;;;;;;;;;5031939;28;20044;-70
2021/05/30 12:06:45;;;;;;;6.03;2.33;;;;;;;;;;5032862;28;20033;-70
2021/05/30 12:09:12;;;;;;;6.05;1.85;;;;;;;;;;5031553;28;20044;-70
2021/05/30 12:11:38;;;;;;;6.18;2.80;;;;;;;;;;5029768;28;20631;-70
2021/05/30 12:14:05;;;;;;;10.65;7.95;;;;;;;;;;5032743;28;20399;-69
2021/05/30 12:16:31;;;;;;;13.57;12.10;;;;;;;;;;5035968;28;20029;-70
2021/05/30 12:18:58;;;;;;;10.40;8.77;;;;;;;;;;5036668;28;20112;-68
2021/05/30 12:21:26;;;;;;;5.05;3.78;;;;;;;;;;5036477;28;20029;-69
2021/05/30 12:23:52;;;;;;;5.70;3.15;;;;;;;;;;5035862;28;20116;-70
2021/05/30 12:26:18;;;;;;;17.83;10.45;;;;;;;;;;5036739;28;20029;-70
2021/05/30 12:28:45;;;;;;;11.50;9.85;;;;;;;;;;5036044;28;20057;-71
2021/05/30 12:31:12;;;;;;;6.88;5.90;;;;;;;;;;5035539;28;20032;-70
2021/05/30 12:33:56;;;;;;;32.75;27.15;;;;;;;;;;5037244;28;20037;-70
2021/05/30 12:36:33;;;;;;;10.85;9.43;;;;;;;;;;5036255;28;20059;-70
2021/05/30 12:39:08;;;;;;;9.65;5.78;;;;;;;;;;5041766;28;20036;-68
2021/05/30 12:41:36;;;;;;;7.32;6.63;;;;;;;;;;5038347;28;20360;-67
2021/05/30 12:44:07;;;;;;;27.05;24.27;;;;;;;;;;5039007;28;20032;-68
2021/05/30 12:46:33;;;;;;;12.05;8.13;;;;;;;;;;5036810;28;20060;-67
2021/05/30 12:49:09;;;;;;;6.60;4.30;;;;;;;;;;5039049;28;20056;-70
2021/05/30 12:51:35;;;;;;;9.30;5.90;;;;;;;;;;5035208;28;20096;-71
2021/05/30 12:54:15;;;;;;;5.75;4.22;;;;;;;;;;5033786;28;20040;-68
2021/05/30 12:56:48;;;;;;;5.72;2.90;;;;;;;;;;5032529;28;20498;-69
2021/05/30 12:59:19;;;;;;;7.47;3.25;;;;;;;;;;5035366;28;20144;-71
2021/05/30 13:01:46;;;;;;;3.55;2.50;;;;;;;;;;5032868;28;20032;-69
2021/05/30 13:04:19;;;;;;;4.20;2.35;;;;;;;;;;5036583;28;20064;-70
2021/05/30 13:06:57;;;;;;;3.15;2.20;;;;;;;;;;5031689;28;20044;-70
2021/05/30 13:09:25;;;;;;;2.40;1.65;;;;;;;;;;5029151;28;20039;-70
2021/05/30 13:11:52;;;;;;;6.50;2.15;;;;;;;;;;5032580;28;20078;-68